Time;durP1;ratioP1;P1;durP2;ratioP2;P2;SDS_P1;SDS_P2;PMS_P1;PMS_P2;Temp;Humidity;BMP_temperature;BMP_pressure;BME280_temperature;BME280_humidity;BME280_pressure;Samples;Min_cycle;Max_cycle;Signal;HPM_P1;HPM_P2
2024/03/13 00:01:13;;;;;;;8.10;6.50;;;282.10;2278.40;;;;;;5011457;28;20102;-74
2024/03/13 00:03:39;;;;;;;6.80;5.93;;;282.20;2278.40;;;;;;5003373;28;20029;-72
2024/03/13 00:06:05;;;;;;;6.22;4.75;;;282.20;2278.40;;;;;;5007422;28;20058;-72
2024/03/13 00:08:31;;;;;;;5.78;4.75;;;282.10;2278.40;;;;;;5025785;28;20022;-73
2024/03/13 00:10:57;;;;;;;5.78;5.18;;;282.20;2278.40;;;;;;5010896;28;20033;-73
2024/03/13 00:13:23;;;;;;;6.63;5.03;;;282.20;2278.40;;;;;;5027609;28;20061;-76
2024/03/13 00:15:50;;;;;;;6.90;5.35;;;282.00;2278.40;;;;;;5028495;28;20390;-73
2024/03/13 00:18:16;;;;;;;7.72;5.60;;;282.10;2278.40;;;;;;5003182;28;20438;-73
2024/03/13 00:20:42;;;;;;;9.18;7.30;;;282.10;2278.40;;;;;;5029250;28;20021;-73
2024/03/13 00:23:11;;;;;;;7.78;5.10;;;282.10;2278.40;;;;;;5027378;28;20021;-73
2024/03/13 00:25:37;;;;;;;13.18;11.90;;;282.00;2278.40;;;;;;5027094;28;20048;-74
2024/03/13 00:28:03;;;;;;;8.88;7.55;;;282.00;2278.40;;;;;;5027709;28;20045;-75
2024/03/13 00:30:29;;;;;;;8.10;5.70;;;282.00;2278.40;;;;;;5025747;28;20087;-73
2024/03/13 00:32:56;;;;;;;8.52;5.45;;;282.00;2278.40;;;;;;5026767;28;20037;-74
2024/03/13 00:35:22;;;;;;;8.82;6.18;;;281.90;2278.40;;;;;;5023151;28;20155;-72
2024/03/13 00:37:49;;;;;;;8.52;6.72;;;281.90;2278.40;;;;;;5024967;28;20479;-72
2024/03/13 00:40:15;;;;;;;7.07;5.32;;;282.00;2278.40;;;;;;4999661;28;20026;-73
2024/03/13 00:42:44;;;;;;;10.85;6.85;;;281.90;2278.40;;;;;;4990608;28;20105;-71
2024/03/13 00:45:11;;;;;;;7.20;5.32;;;282.00;2278.40;;;;;;5016002;28;20497;-73
2024/03/13 00:47:37;;;;;;;9.52;8.38;;;281.90;2278.40;;;;;;5028363;28;20067;-72
2024/03/13 00:50:07;;;;;;;8.90;7.13;;;282.00;2278.40;;;;;;5015940;28;20388;-74
2024/03/13 00:52:33;;;;;;;6.63;5.55;;;282.00;2278.40;;;;;;5027452;28;20533;-74
2024/03/13 00:54:59;;;;;;;8.40;5.50;;;282.00;2278.40;;;;;;5027616;28;20022;-74
2024/03/13 00:57:27;;;;;;;9.10;6.38;;;281.90;2278.40;;;;;;5024812;28;20022;-73
2024/03/13 00:59:53;;;;;;;7.22;5.25;;;282.00;2278.40;;;;;;5025633;28;20735;-72
2024/03/13 01:02:20;;;;;;;7.05;5.18;;;282.00;2278.40;;;;;;5022386;28;20364;-73
2024/03/13 01:04:48;;;;;;;7.15;5.93;;;281.90;2278.40;;;;;;5025080;28;20064;-74
2024/03/13 01:07:14;;;;;;;6.85;5.15;;;281.90;2278.40;;;;;;4998682;28;20034;-72
2024/03/13 01:09:41;;;;;;;10.27;6.93;;;281.80;2278.40;;;;;;5024244;28;20023;-71
2024/03/13 01:12:07;;;;;;;16.05;10.60;;;281.70;2278.40;;;;;;5014237;28;20034;-76
2024/03/13 01:14:34;;;;;;;14.50;9.05;;;281.70;2278.40;;;;;;5014914;28;20124;-73
2024/03/13 01:17:02;;;;;;;11.65;10.40;;;281.60;2278.40;;;;;;5008070;28;20111;-71
2024/03/13 01:19:33;;;;;;;7.53;5.75;;;281.60;2278.40;;;;;;4994517;28;20411;-73
2024/03/13 01:22:12;;;;;;;6.75;4.68;;;281.60;2278.40;;;;;;5016466;28;20462;-73
2024/03/13 01:24:39;;;;;;;16.65;9.77;;;256.90;2252.80;;;;;;5001524;28;20037;-72
2024/03/13 01:27:05;;;;;;;8.73;5.97;;;256.90;2252.80;;;;;;5013094;28;20043;-73
2024/03/13 01:29:31;;;;;;;8.23;5.28;;;256.80;2252.80;;;;;;4997968;28;20030;-76
2024/03/13 01:31:58;;;;;;;21.20;12.93;;;256.80;2252.80;;;;;;5002744;28;20105;-74
2024/03/13 01:34:24;;;;;;;13.80;6.95;;;256.90;2252.80;;;;;;5010872;28;20037;-74
2024/03/13 01:39:35;;;;;;;29.02;13.98;;;256.80;2252.80;;;;;;5012596;28;20029;-73
2024/03/13 01:56:59;;;;;;;23.27;14.68;;;256.80;2252.80;;;;;;4880177;29;20043;-74
2024/03/13 01:59:37;;;;;;;18.65;11.18;;;256.80;2252.80;;;;;;4894551;29;20033;-73
2024/03/13 02:04:50;;;;;;;9.60;5.57;;;256.70;2252.80;;;;;;4894844;29;20126;-75
2024/03/13 02:07:20;;;;;;;8.95;6.95;;;256.90;2252.80;;;;;;4894775;29;20035;-75
2024/03/13 02:09:49;;;;;;;10.80;7.20;;;;;;;;;;4894640;29;20511;-75
2024/03/13 02:12:15;;;;;;;11.90;7.93;;;;;;;;;;4894294;29;20045;-73
2024/03/13 02:14:41;;;;;;;15.38;13.40;;;;;;;;;;4894590;29;20047;-75
2024/03/13 02:17:07;;;;;;;9.07;7.13;;;;;;;;;;4894403;29;20032;-74
2024/03/13 02:19:36;;;;;;;12.32;9.60;;;;;;;;;;4894570;29;20032;-74
2024/03/13 02:22:04;;;;;;;11.98;10.77;;;;;;;;;;4906146;29;20045;-73
2024/03/13 02:24:30;;;;;;;9.23;7.10;;;;;;;;;;4933109;28;20117;-72
2024/03/13 02:26:57;;;;;;;9.05;6.10;;;;;;;;;;5011166;28;20052;-73
2024/03/13 02:29:23;;;;;;;8.77;6.97;;;;;;;;;;5011562;28;20026;-73
2024/03/13 02:31:49;;;;;;;7.93;5.40;;;;;;;;;;5011796;28;20434;-75
2024/03/13 02:34:18;;;;;;;7.97;5.03;;;;;;;;;;5011752;28;20033;-73
2024/03/13 02:36:46;;;;;;;8.82;5.65;;;;;;;;;;5011777;28;20022;-73
2024/03/13 02:39:18;;;;;;;7.95;5.28;;;;;;;;;;5011681;28;20022;-73
2024/03/13 02:41:45;;;;;;;6.50;4.80;;;;;;;;;;5011507;28;20030;-74
2024/03/13 02:44:11;;;;;;;17.55;14.02;;;;;;;;;;5011696;28;20268;-75
2024/03/13 02:46:38;;;;;;;7.93;6.03;;;;;;;;;;5010830;28;20105;-73
2024/03/13 02:49:04;;;;;;;6.28;4.35;;;;;;;;;;5010859;28;20101;-74
2024/03/13 02:51:30;;;;;;;6.32;4.95;;;;;;;;;;5011814;28;20026;-72
2024/03/13 02:53:57;;;;;;;6.45;3.72;;;;;;;;;;5011347;28;20034;-74
2024/03/13 02:56:23;;;;;;;7.72;4.70;;;;;;;;;;5011327;28;20033;-74
2024/03/13 02:58:52;;;;;;;4.63;3.65;;;;;;;;;;5011586;28;20026;-74
2024/03/13 03:01:18;;;;;;;9.15;6.43;;;;;;;;;;5006479;28;20223;-75
2024/03/13 03:03:44;;;;;;;6.95;4.70;;;;;;;;;;5004092;28;20103;-73
2024/03/13 03:06:10;;;;;;;6.35;4.10;;;;;;;;;;5011540;28;20029;-73
2024/03/13 03:08:40;;;;;;;4.15;3.35;;;;;;;;;;5010990;28;20017;-74
2024/03/13 03:11:06;;;;;;;6.35;3.45;;;;;;;;;;5010774;28;20109;-74
2024/03/13 03:13:35;;;;;;;5.93;3.85;;;;;;;;;;4993317;28;20089;-74
2024/03/13 03:16:02;;;;;;;6.00;3.38;;;;;;;;;;4998402;28;20068;-74
2024/03/13 03:18:28;;;;;;;5.50;3.97;;;;;;;;;;5011184;28;20472;-74
2024/03/13 03:20:54;;;;;;;5.35;3.67;;;;;;;;;;4998308;28;20049;-74
2024/03/13 03:23:20;;;;;;;6.28;3.83;;;;;;;;;;5011166;28;20085;-75
2024/03/13 03:25:47;;;;;;;15.15;7.60;;;;;;;;;;5010969;28;20032;-74
2024/03/13 03:28:14;;;;;;;7.72;4.50;;;;;;;;;;5010508;28;20080;-74
2024/03/13 03:30:46;;;;;;;4.47;3.22;;;;;;;;;;4993518;28;20452;-74
2024/03/13 03:33:18;;;;;;;5.88;3.20;;;;;;;;;;4993065;28;20056;-73
2024/03/13 03:35:44;;;;;;;4.93;3.28;;;;;;;;;;5010425;28;20072;-75
2024/03/13 03:38:10;;;;;;;4.53;2.97;;;;;;;;;;5010553;28;20026;-74
2024/03/13 03:40:37;;;;;;;3.72;2.67;;;;;;;;;;5010263;28;20022;-74
2024/03/13 03:43:03;;;;;;;5.07;3.75;;;256.90;2252.80;;;;;;5010554;28;20282;-76
2024/03/13 03:45:30;;;;;;;5.07;3.15;;;;;;;;;;5010940;28;20061;-74
2024/03/13 03:47:55;;;;;;;3.90;3.10;;;256.90;2252.80;;;;;;5010654;28;20018;-74
2024/03/13 03:50:22;;;;;;;4.75;3.65;;;;;;;;;;5010743;28;20029;-74
2024/03/13 03:52:49;;;;;;;5.30;3.20;;;;;;;;;;5010498;28;20501;-74
2024/03/13 03:55:15;;;;;;;5.60;3.70;;;256.90;2252.80;;;;;;5010617;28;20061;-73
2024/03/13 03:57:41;;;;;;;4.40;3.22;;;;;;;;;;5009745;28;20034;-76
2024/03/13 04:00:10;;;;;;;8.73;3.15;;;;;;;;;;5009903;28;20022;-73
2024/03/13 04:02:37;;;;;;;4.95;3.30;;;;;;;;;;5010195;28;20029;-75
2024/03/13 04:05:07;;;;;;;5.00;3.55;;;;;;;;;;5009985;28;20045;-73
2024/03/13 04:07:33;;;;;;;4.97;3.05;;;;;;;;;;5009779;28;20058;-74
2024/03/13 04:09:59;;;;;;;4.72;3.38;;;;;;;;;;5010347;28;20076;-74
2024/03/13 04:12:25;;;;;;;4.80;3.08;;;;;;;;;;5010179;28;20519;-75
2024/03/13 04:14:51;;;;;;;4.35;2.80;;;256.70;2252.80;;;;;;5010395;28;20063;-74
2024/03/13 04:17:17;;;;;;;4.57;2.83;;;256.50;2252.80;;;;;;5009848;28;20041;-74
2024/03/13 04:19:43;;;;;;;5.45;4.00;;;256.40;2252.80;;;;;;5010062;28;20026;-75
2024/03/13 04:22:09;;;;;;;4.53;3.30;;;256.50;2252.80;;;;;;5009938;28;20105;-75
2024/03/13 04:24:35;;;;;;;3.95;2.78;;;256.50;2252.80;;;;;;5009612;28;20372;-75
2024/03/13 04:27:02;;;;;;;4.70;3.45;;;256.50;2252.80;;;;;;5009698;28;20050;-73
2024/03/13 04:29:28;;;;;;;4.88;2.85;;;256.50;2252.80;;;;;;5009769;28;20018;-74
2024/03/13 04:31:54;;;;;;;4.82;3.03;;;256.50;2252.80;;;;;;5009550;28;20087;-73
2024/03/13 04:34:20;;;;;;;6.03;3.45;;;256.40;2252.80;;;;;;5010065;28;20022;-74
2024/03/13 04:36:47;;;;;;;5.38;3.55;;;256.50;2252.80;;;;;;5009715;28;20087;-73
2024/03/13 04:39:13;;;;;;;4.50;3.30;;;;;;;;;;5010039;28;20344;-74
2024/03/13 04:41:39;;;;;;;6.63;4.78;;;;;;;;;;4992236;28;20373;-74
2024/03/13 04:44:09;;;;;;;6.82;3.38;;;;;;;;;;5009621;28;20029;-71
2024/03/13 04:46:35;;;;;;;6.25;3.42;;;;;;;;;;5009580;28;20030;-73
2024/03/13 04:49:03;;;;;;;19.20;16.60;;;;;;;;;;5009692;28;20072;-73
2024/03/13 04:51:30;;;;;;;9.20;5.65;;;;;;;;;;5009500;28;20652;-74
2024/03/13 04:53:56;;;;;;;16.30;8.93;;;;;;;;;;5009235;28;20464;-73
2024/03/13 04:56:22;;;;;;;12.25;6.50;;;;;;;;;;5009115;28;20026;-74
2024/03/13 04:58:48;;;;;;;23.23;12.85;;;;;;;;;;5009335;28;20030;-75
2024/03/13 05:01:18;;;;;;;6.57;4.45;;;;;;;;;;5009397;28;20105;-74
2024/03/13 05:03:44;;;;;;;4.93;4.00;;;;;;;;;;5009239;28;20034;-74
2024/03/13 05:06:11;;;;;;;9.82;5.90;;;;;;;;;;5009456;28;20041;-74
2024/03/13 05:08:37;;;;;;;17.17;7.90;;;;;;;;;;5009442;28;20088;-74
2024/03/13 05:11:04;;;;;;;16.10;8.13;;;;;;;;;;5008350;28;20109;-74
2024/03/13 05:13:31;;;;;;;9.75;6.18;;;;;;;;;;5009061;28;20038;-73
2024/03/13 05:15:58;;;;;;;56.42;29.35;;;;;;;;;;4996394;28;20105;-74
2024/03/13 05:18:24;;;;;;;8.63;5.43;;;;;;;;;;5008847;28;20021;-74
2024/03/13 05:20:50;;;;;;;8.45;4.55;;;;;;;;;;5009562;28;20379;-74
2024/03/13 05:23:16;;;;;;;7.40;5.00;;;;;;;;;;5008758;28;20022;-74
2024/03/13 05:25:42;;;;;;;6.93;4.22;;;;;;;;;;5009369;28;20710;-74
2024/03/13 05:28:08;;;;;;;4.38;3.38;;;;;;;;;;5009181;28;20053;-73
2024/03/13 05:30:37;;;;;;;6.07;4.25;;;;;;;;;;5009649;28;20036;-74
2024/03/13 05:33:06;;;;;;;8.32;4.85;;;;;;;;;;4991370;28;20044;-73
2024/03/13 05:35:32;;;;;;;7.55;4.28;;;;;;;;;;5009329;28;20357;-73
2024/03/13 05:37:58;;;;;;;6.35;4.68;;;;;;;;;;5009950;28;20572;-73
2024/03/13 05:40:24;;;;;;;7.70;5.90;;;;;;;;;;5008539;28;20026;-74
2024/03/13 05:42:50;;;;;;;11.80;6.55;;;;;;;;;;5013656;28;20036;-74
2024/03/13 05:45:16;;;;;;;6.55;4.57;;;;;;;;;;5008941;28;20379;-74
2024/03/13 05:47:43;;;;;;;7.43;4.70;;;;;;;;;;5008712;28;20056;-75
2024/03/13 05:50:13;;;;;;;8.45;5.32;;;;;;;;;;5009240;28;20018;-74
2024/03/13 05:52:39;;;;;;;8.40;5.88;;;;;;;;;;5008742;28;20041;-73
2024/03/13 05:55:05;;;;;;;6.50;5.05;;;;;;;;;;5008965;28;20069;-73
2024/03/13 05:57:31;;;;;;;9.48;7.78;;;;;;;;;;5009057;28;20092;-73
2024/03/13 05:59:57;;;;;;;6.30;4.70;;;;;;;;;;5008636;28;20014;-74
2024/03/13 06:02:23;;;;;;;6.30;5.00;;;;;;;;;;5008019;28;20030;-73
2024/03/13 06:04:50;;;;;;;9.52;7.15;;;;;;;;;;5017847;28;20029;-73
2024/03/13 06:07:16;;;;;;;8.35;6.38;;;;;;;;;;5008205;28;20424;-74
2024/03/13 06:09:42;;;;;;;6.63;5.68;;;;;;;;;;5008940;28;20376;-72
2024/03/13 06:12:08;;;;;;;9.15;6.07;;;;;;;;;;5008398;28;20037;-73
2024/03/13 06:14:34;;;;;;;8.18;6.88;;;;;;;;;;5008826;28;20125;-75
2024/03/13 06:17:01;;;;;;;10.18;6.43;;;;;;;;;;5003963;28;20033;-74
2024/03/13 06:19:27;;;;;;;8.65;7.22;;;;;;;;;;5009645;28;20487;-75
2024/03/13 06:21:54;;;;;;;7.57;5.82;;;;;;;;;;5010257;28;20060;-74
2024/03/13 06:24:30;;;;;;;9.23;7.00;;;;;;;;;;5012214;28;20018;-74
2024/03/13 06:27:00;;;;;;;8.98;6.47;;;;;;;;;;5011510;28;20042;-74
2024/03/13 06:32:11;;;;;;;11.57;9.27;;;;;;;;;;5011894;28;20079;-76
2024/03/13 06:34:38;;;;;;;11.90;9.80;;;;;;;;;;5011546;28;20053;-73
2024/03/13 06:37:05;;;;;;;19.90;11.88;;;;;;;;;;4999497;28;20105;-75
2024/03/13 06:39:31;;;;;;;9.77;8.35;;;;;;;;;;5012202;28;20022;-74
2024/03/13 06:41:58;;;;;;;31.88;24.27;;;;;;;;;;5012002;28;20022;-76
2024/03/13 06:44:24;;;;;;;14.35;11.98;;;;;;;;;;5011896;28;20026;-74
2024/03/13 06:46:53;;;;;;;13.77;10.65;;;;;;;;;;5012235;28;20022;-74
2024/03/13 06:49:19;;;;;;;12.07;8.65;;;;;;;;;;4994167;28;20539;-75
2024/03/13 06:51:46;;;;;;;15.48;12.95;;;;;;;;;;5011859;28;20446;-76
2024/03/13 06:54:12;;;;;;;12.98;10.70;;;;;;;;;;5011469;28;20041;-76
2024/03/13 06:56:38;;;;;;;27.80;23.95;;;;;;;;;;5011985;28;20022;-72
2024/03/13 06:59:06;;;;;;;14.75;10.25;;;;;;;;;;5011290;28;20022;-74
2024/03/13 07:01:32;;;;;;;15.27;13.07;;;;;;;;;;5011972;28;20037;-71
2024/03/13 07:03:58;;;;;;;18.65;14.73;;;;;;;;;;5011685;28;20100;-75
2024/03/13 07:06:25;;;;;;;13.35;10.55;;;;;;;;;;5011604;28;20109;-74
2024/03/13 07:08:51;;;;;;;21.95;15.38;;;;;;;;;;5011574;28;20049;-76
2024/03/13 07:11:17;;;;;;;14.02;10.40;;;;;;;;;;5011567;28;20484;-75
2024/03/13 07:13:43;;;;;;;16.45;12.95;;;;;;;;;;5011311;28;20061;-71
2024/03/13 07:16:09;;;;;;;14.65;10.80;;;;;;;;;;5011489;28;20022;-74
2024/03/13 07:18:35;;;;;;;13.35;10.30;;;;;;;;;;4993451;28;20511;-74
2024/03/13 07:21:02;;;;;;;22.52;16.58;;;;;;;;;;5011451;28;20089;-70
2024/03/13 07:23:29;;;;;;;24.88;20.15;;;;;;;;;;5011045;28;20030;-76
2024/03/13 07:25:55;;;;;;;16.25;13.15;;;;;;;;;;5010875;28;20022;-72
2024/03/13 07:28:22;;;;;;;15.80;13.43;;;;;;;;;;4994410;28;20064;-77
2024/03/13 07:30:49;;;;;;;19.00;12.65;;;;;;;;;;5011224;28;20053;-78
2024/03/13 07:33:15;;;;;;;31.88;25.52;;;;;;;;;;5010727;28;20038;-75
2024/03/13 07:35:42;;;;;;;16.38;12.32;;;;;;;;;;5011661;28;20026;-76
2024/03/13 07:38:09;;;;;;;20.90;16.13;;;;;;;;;;5011008;28;20042;-76
2024/03/13 07:40:39;;;;;;;21.70;15.15;;;;;;;;;;5010916;28;20487;-74
2024/03/13 07:43:09;;;;;;;19.40;13.13;;;;;;;;;;5010197;28;20018;-76
2024/03/13 07:45:37;;;;;;;16.45;11.35;;;;;;;;;;5010827;28;20037;-74
2024/03/13 07:48:07;;;;;;;16.23;12.52;;;;;;;;;;5010064;28;20496;-72
2024/03/13 07:50:34;;;;;;;16.58;12.25;;;;;;;;;;5010656;28;20030;-72
2024/03/13 07:53:02;;;;;;;20.08;14.13;;;;;;;;;;5010742;28;20054;-74
2024/03/13 07:55:28;;;;;;;33.83;20.83;;;;;;;;;;5010946;28;20022;-75
2024/03/13 07:57:54;;;;;;;17.30;13.30;;;;;;;;;;5010280;28;20018;-74
2024/03/13 08:00:22;;;;;;;14.93;12.77;;;;;;;;;;5010595;28;20026;-73
2024/03/13 08:02:48;;;;;;;25.42;16.45;;;;;;;;;;5010272;28;20026;-76
2024/03/13 08:05:16;;;;;;;17.73;13.57;;;;;;;;;;5010575;28;20026;-74
2024/03/13 08:07:44;;;;;;;19.27;13.90;;;;;;;;;;5010189;28;20045;-72
2024/03/13 08:10:17;;;;;;;24.52;15.02;;;;;;;;;;5010156;28;20022;-76
2024/03/13 08:12:44;;;;;;;20.83;15.13;;;;;;;;;;5010059;28;20044;-72
2024/03/13 08:15:11;;;;;;;19.95;14.45;;;;;;;;;;5009996;28;20093;-75
2024/03/13 08:17:38;;;;;;;103.75;56.97;;;;;;;;;;4997449;28;20022;-76
2024/03/13 08:20:04;;;;;;;81.72;51.40;;;;;;;;;;5009825;28;20033;-75
2024/03/13 08:22:31;;;;;;;64.13;48.67;;;;;;;;;;5010422;28;20022;-76
2024/03/13 08:24:58;;;;;;;55.55;39.67;;;;;;;;;;5009893;28;20025;-74
2024/03/13 08:27:24;;;;;;;27.02;20.88;;;;;;;;;;5010244;28;20022;-74
2024/03/13 08:29:50;;;;;;;15.48;12.55;;;;;;;;;;5009946;28;20095;-75
2024/03/13 08:32:16;;;;;;;47.33;26.95;;;;;;;;;;5009503;28;20038;-75
2024/03/13 08:34:43;;;;;;;17.90;13.75;;;;;;;;;;5009466;28;20029;-73
2024/03/13 08:37:10;;;;;;;28.13;17.17;;;;;;;;;;5010129;28;20109;-73
2024/03/13 08:39:36;;;;;;;28.50;19.92;;;;;;;;;;5009198;28;20018;-70
2024/03/13 08:42:03;;;;;;;31.42;21.58;;;;;;;;;;5002359;28;20542;-75
2024/03/13 08:44:29;;;;;;;156.63;85.97;;;;;;;;;;5007775;28;20536;-80
2024/03/13 08:46:56;;;;;;;53.13;31.65;;;;;;;;;;5024757;28;20037;-82
2024/03/13 08:49:22;;;;;;;26.45;19.33;;;;;;;;;;5015269;28;20535;-79
2024/03/13 08:51:48;;;;;;;29.65;20.45;;;;;;;;;;5009251;28;20057;-77
2024/03/13 08:54:14;;;;;;;38.97;27.38;;;;;;;;;;5000624;28;20030;-75
2024/03/13 08:56:42;;;;;;;20.95;16.13;;;;;;;;;;5006507;28;20025;-74
2024/03/13 08:59:08;;;;;;;28.58;18.23;;;;;;;;;;5018682;28;20026;-74
2024/03/13 09:01:44;;;;;;;99.32;49.83;;;;;;;;;;5009328;28;20491;-73
2024/03/13 09:04:10;;;;;;;26.88;19.27;;;;;;;;;;5009204;28;20026;-74
2024/03/13 09:06:38;;;;;;;21.75;16.95;;;;;;;;;;5009839;28;20028;-74
2024/03/13 09:09:04;;;;;;;18.92;15.43;;;;;;;;;;5009319;28;20018;-76
2024/03/13 09:11:31;;;;;;;17.88;14.30;;;;;;;;;;5011968;28;20360;-77
2024/03/13 09:14:01;;;;;;;31.25;19.15;;;;;;;;;;5015579;28;20030;-74
2024/03/13 09:16:28;;;;;;;20.50;15.65;;;;;;;;;;5015550;28;20018;-74
2024/03/13 09:18:55;;;;;;;104.95;59.67;;;;;;;;;;5027944;28;20029;-75
2024/03/13 09:21:21;;;;;;;52.55;29.48;;;;;;;;;;5025931;28;20025;-72
2024/03/13 09:23:47;;;;;;;186.70;101.30;;;;;;;;;;5026462;28;20099;-71
2024/03/13 09:26:13;;;;;;;72.28;37.95;;;;;;;;;;5006440;28;20032;-75
2024/03/13 09:28:39;;;;;;;35.22;23.17;;;;;;;;;;5025812;28;20042;-74
2024/03/13 09:31:07;;;;;;;26.80;18.23;;;;;;;;;;5021748;28;20036;-76
2024/03/13 09:33:33;;;;;;;21.10;16.52;;;;;;;;;;5002616;28;20076;-71
2024/03/13 09:36:00;;;;;;;41.65;25.85;;;;;;;;;;5007928;28;20025;-73
2024/03/13 09:38:26;;;;;;;28.95;18.70;;;;;;;;;;5001575;28;20132;-70
2024/03/13 09:40:52;;;;;;;20.30;17.00;;;;;;;;;;5005214;28;20026;-74
2024/03/13 09:43:21;;;;;;;20.08;15.90;;;;;;;;;;5015172;28;20026;-75
2024/03/13 09:45:47;;;;;;;22.55;15.15;;;;;;;;;;5009723;28;20109;-70
2024/03/13 09:48:14;;;;;;;23.13;17.83;;;;;;;;;;5022789;28;20034;-72
2024/03/13 09:50:43;;;;;;;22.52;16.65;;;;;;;;;;5020521;28;20068;-73
2024/03/13 09:53:10;;;;;;;20.02;16.95;;;;;;;;;;5027072;28;20467;-74
2024/03/13 09:55:40;;;;;;;24.42;15.48;;;;;;;;;;5027618;28;20025;-69
2024/03/13 09:58:09;;;;;;;19.10;15.57;;;;;;;;;;5030022;28;20392;-78
2024/03/13 10:00:35;;;;;;;18.13;14.40;;;;;;;;;;5029486;28;20041;-73
2024/03/13 10:03:07;;;;;;;61.22;44.13;;;282.20;2278.40;;;;;;5020296;28;20037;-73
2024/03/13 10:05:34;;;;;;;27.05;21.42;;;282.00;2278.40;;;;;;5031106;28;20543;-73
2024/03/13 10:08:03;;;;;;;70.18;43.25;;;282.10;2278.40;;;;;;5031503;28;20407;-72
2024/03/13 10:10:30;;;;;;;24.75;18.35;;;;;;;;;;5030500;28;20033;-74
2024/03/13 10:12:57;;;;;;;16.02;13.70;;;;;;;;;;5016953;28;20058;-73
2024/03/13 10:15:23;;;;;;;18.50;14.93;;;;;;;;;;5000673;28;20120;-76
2024/03/13 10:18:10;;;;;;;42.22;27.67;;;;;;;;;;4996879;28;20476;-72
2024/03/13 10:20:56;;;;;;;19.70;15.07;;;;;;;;;;5004646;28;20026;-71
2024/03/13 10:23:23;;;;;;;16.67;13.45;;;;;;;;;;4990136;28;20120;-75
2024/03/13 10:25:52;;;;;;;58.22;33.15;;;;;;;;;;4995569;28;20029;-70
2024/03/13 10:28:23;;;;;;;81.80;49.67;;;;;;;;;;4995260;28;20033;-73
2024/03/13 10:30:52;;;;;;;96.75;58.67;;;;;;;;;;5004771;28;20042;-71
2024/03/13 10:33:19;;;;;;;53.33;32.28;;;;;;;;;;5001444;28;20132;-74
2024/03/13 10:35:45;;;;;;;21.40;18.17;;;;;;;;;;4999702;28;20022;-78
2024/03/13 10:38:15;;;;;;;47.40;34.75;;;;;;;;;;4997138;28;20100;-73
2024/03/13 10:40:41;;;;;;;21.63;19.35;;;;;;;;;;5004834;28;20033;-71
2024/03/13 10:43:09;;;;;;;22.92;17.77;;;;;;;;;;4979612;28;20121;-72
2024/03/13 10:45:36;;;;;;;17.92;13.70;;;;;;;;;;5002477;28;20036;-73
2024/03/13 10:48:06;;;;;;;15.85;13.75;;;;;;;;;;4998079;28;20030;-71
2024/03/13 10:50:33;;;;;;;17.65;14.48;;;;;;;;;;5000732;28;20027;-71
2024/03/13 10:53:01;;;;;;;19.63;17.63;;;;;;;;;;5001166;28;20041;-73
2024/03/13 10:55:28;;;;;;;16.67;13.57;;;;;;;;;;4984444;28;20033;-70
2024/03/13 10:57:54;;;;;;;25.17;19.50;;;;;;;;;;4999603;28;20108;-70
2024/03/13 11:00:23;;;;;;;19.00;15.07;;;;;;;;;;4997130;28;20026;-70
2024/03/13 11:02:52;;;;;;;17.15;14.75;;;;;;;;;;5007619;28;20025;-71
2024/03/13 11:05:18;;;;;;;23.88;18.88;;;;;;;;;;5006116;28;20081;-71
2024/03/13 11:07:47;;;;;;;20.67;16.95;;;;;;;;;;5007398;28;20033;-73
2024/03/13 11:10:24;;;;;;;21.13;15.75;;;;;;;;;;5011845;28;20547;-72
2024/03/13 11:12:51;;;;;;;19.48;16.02;;;;;;;;;;5008226;28;20038;-71
2024/03/13 11:15:30;;;;;;;19.75;14.95;;;;;;;;;;5005611;28;20117;-72
2024/03/13 11:17:57;;;;;;;19.55;14.60;;;;;;;;;;5013724;28;20349;-72
2024/03/13 11:20:26;;;;;;;19.60;14.82;;;;;;;;;;5003678;28;20084;-73
2024/03/13 11:23:11;;;;;;;18.02;14.73;;;;;;;;;;5007342;28;20030;-70
2024/03/13 11:25:40;;;;;;;19.60;15.55;;;;;;;;;;5000376;28;20113;-74
2024/03/13 11:28:09;;;;;;;18.50;15.55;;;;;;;;;;5015687;28;20356;-76
2024/03/13 11:30:37;;;;;;;18.25;14.60;;;;;;;;;;5013960;28;20053;-74
2024/03/13 11:33:04;;;;;;;22.17;15.68;;;;;;;;;;5023583;28;20037;-72
2024/03/13 11:35:30;;;;;;;17.33;14.82;;;;;;;;;;4999578;28;20038;-70
2024/03/13 11:37:57;;;;;;;30.25;16.60;;;;;;;;;;5010451;28;20109;-75
2024/03/13 11:40:25;;;;;;;17.17;13.82;;;;;;;;;;5010390;28;20380;-70
2024/03/13 11:42:51;;;;;;;20.65;16.17;;;;;;;;;;5010363;28;20361;-70
2024/03/13 11:45:23;;;;;;;23.30;16.38;;;;;;;;;;5003394;28;20030;-68
2024/03/13 11:47:57;;;;;;;19.40;16.05;;;;;;;;;;4998401;28;20029;-72
2024/03/13 11:50:23;;;;;;;18.48;14.68;;;;;;;;;;4997224;28;20141;-71
2024/03/13 11:53:10;;;;;;;21.23;16.75;;;;;;;;;;4996621;28;20510;-71
2024/03/13 11:55:36;;;;;;;19.40;14.40;;;;;;;;;;5000319;28;20033;-74
2024/03/13 11:58:02;;;;;;;17.80;14.25;;;;;;;;;;4993064;28;20464;-72
2024/03/13 12:00:29;;;;;;;21.52;14.07;;;;;;;;;;4994128;28;20121;-75
2024/03/13 12:02:57;;;;;;;18.30;14.00;;;;;;;;;;5002020;28;20499;-72
2024/03/13 12:05:33;;;;;;;21.55;15.32;;;;;;;;;;5001803;28;20054;-71
2024/03/13 12:08:00;;;;;;;18.10;14.90;;;;;;;;;;4999250;28;20014;-76
2024/03/13 12:10:27;;;;;;;16.00;13.60;;;;;;;;;;4997464;28;20030;-69
2024/03/13 12:12:54;;;;;;;18.83;16.55;;;;;;;;;;4995646;28;20068;-74
2024/03/13 12:15:21;;;;;;;19.45;15.07;;;;;;;;;;5001605;28;20014;-73
2024/03/13 12:17:50;;;;;;;17.17;13.65;;;;;;;;;;4993302;28;20057;-72
2024/03/13 12:20:22;;;;;;;22.67;16.13;;;;;;;;;;4993334;28;20026;-71
2024/03/13 12:22:51;;;;;;;17.42;13.52;;;;;;;;;;5000793;28;20414;-71
2024/03/13 12:25:21;;;;;;;19.08;15.02;;;;;;;;;;4992680;28;20029;-70
2024/03/13 12:27:49;;;;;;;18.10;14.77;;;;;;;;;;5002112;28;20028;-71
2024/03/13 12:30:19;;;;;;;40.90;36.65;;;;;;;;;;5005998;28;20408;-71
2024/03/13 12:32:51;;;;;;;53.03;29.55;;;;;;;;;;5000390;28;20681;-69
2024/03/13 12:35:17;;;;;;;20.43;15.37;;;;;;;;;;5009147;28;20053;-71
2024/03/13 12:37:49;;;;;;;22.67;15.93;;;;;;;;;;5002324;28;20343;-72
2024/03/13 12:40:16;;;;;;;28.50;18.57;;;;;;;;;;5000723;28;20485;-73
2024/03/13 12:42:42;;;;;;;28.67;19.52;;;;;;;;;;4999281;28;20181;-70
2024/03/13 12:45:11;;;;;;;22.02;15.18;;;;;;;;;;4994215;28;20014;-73
2024/03/13 12:47:41;;;;;;;18.98;14.25;;;;;;;;;;4999613;28;20108;-72
2024/03/13 12:50:15;;;;;;;24.45;16.45;;;;;;;;;;5000108;28;20023;-70
2024/03/13 12:52:51;;;;;;;17.63;13.07;;;;;;;;;;4996581;28;20478;-71
2024/03/13 12:55:19;;;;;;;18.63;14.23;;;;;;;;;;5000356;28;20036;-71
2024/03/13 12:57:52;;;;;;;55.00;29.25;;;;;;;;;;5003412;28;20112;-71
2024/03/13 13:00:19;;;;;;;38.00;21.30;;;;;;;;;;5007032;28;20034;-74
2024/03/13 13:02:46;;;;;;;19.67;15.02;;;;;;;;;;4999129;28;20037;-72
2024/03/13 13:05:13;;;;;;;27.20;24.23;;;;;;;;;;4998287;28;20029;-72
2024/03/13 13:07:51;;;;;;;25.40;17.00;;;;;;;;;;4994844;28;20192;-70
2024/03/13 13:10:26;;;;;;;23.42;15.88;;;;;;;;;;4997180;28;20499;-71
2024/03/13 13:12:55;;;;;;;19.90;15.70;;;;;;;;;;4997097;28;20041;-75
2024/03/13 13:15:22;;;;;;;24.40;18.17;;;;;;;;;;4992091;28;20037;-70
2024/03/13 13:17:51;;;;;;;22.50;17.85;;;;;;;;;;4991119;28;20481;-71
2024/03/13 13:20:18;;;;;;;75.05;41.10;;;;;;;;;;5002967;28;20026;-71
2024/03/13 13:22:45;;;;;;;20.38;15.27;;;;;;;;;;5000328;28;20532;-72
2024/03/13 13:25:12;;;;;;;37.25;22.63;;;;;;;;;;4998551;28;20113;-72
2024/03/13 13:27:57;;;;;;;33.33;24.10;;;;;;;;;;5002862;28;20022;-72
2024/03/13 13:30:23;;;;;;;39.08;25.58;;;;;;;;;;4999692;28;20128;-73
2024/03/13 13:32:51;;;;;;;22.23;15.55;;;;;;;;;;4991066;28;20046;-73
2024/03/13 13:35:17;;;;;;;16.42;13.30;;;;;;;;;;4993114;28;20503;-70
2024/03/13 13:37:44;;;;;;;18.52;13.60;;;;;;;;;;4994439;28;20476;-70
2024/03/13 13:40:20;;;;;;;19.98;15.15;;;;;;;;;;5004413;28;20014;-72
2024/03/13 13:42:50;;;;;;;26.70;17.83;;;;;;;;;;4994704;28;20038;-73
2024/03/13 13:45:19;;;;;;;15.55;12.43;;;;;;;;;;4996510;28;20026;-71
2024/03/13 13:47:46;;;;;;;55.85;37.60;;;;;;;;;;4995773;28;20018;-71
2024/03/13 13:50:14;;;;;;;19.10;14.90;;;;;;;;;;5001276;28;20530;-70
2024/03/13 13:52:44;;;;;;;13.98;11.32;;;;;;;;;;4995932;28;20089;-70
2024/03/13 13:55:12;;;;;;;20.00;14.43;;;;;;;;;;5000662;28;20022;-68
2024/03/13 13:57:38;;;;;;;25.08;18.20;;;;;;;;;;5002618;28;20057;-69
2024/03/13 14:00:12;;;;;;;24.80;18.83;;;;;;;;;;4999168;28;20022;-71
2024/03/13 14:02:38;;;;;;;44.30;31.38;;;;;;;;;;4996602;28;20045;-70
2024/03/13 14:05:09;;;;;;;50.83;32.10;;;;;;;;;;4999175;28;20022;-71
2024/03/13 14:07:35;;;;;;;13.95;11.18;;;;;;;;;;5008380;28;20025;-71
2024/03/13 14:10:02;;;;;;;21.02;15.07;;;;;;;;;;4998729;28;20029;-72
2024/03/13 14:12:34;;;;;;;15.35;12.32;;;;;;;;;;5001011;28;20033;-71
2024/03/13 14:15:00;;;;;;;79.97;54.23;;;;;;;;;;5008888;28;20026;-71
2024/03/13 14:17:34;;;;;;;25.23;18.33;;;;;;;;;;5008699;28;20041;-71
2024/03/13 14:20:11;;;;;;;16.45;12.35;;;;;;;;;;5025438;28;20025;-71
2024/03/13 14:22:38;;;;;;;48.60;44.03;;;;;;;;;;5020422;28;20034;-71
2024/03/13 14:25:05;;;;;;;13.80;11.68;;;;;;;;;;5018267;28;20092;-72